Terminal Aerodrome Forecast
Issued by NWS New Orleans/Baton Rouge, LA

Home | Current Version | Previous Version | Text Only | Print | Product List | Glossary On
Versions: 1 2 3 4 5 6 7 8 9 10 11 12 13 14 15 16 17 18 19
000
FTUS44 KLIX 200500
TAFBTR
TAF
KBTR 200520Z 2006/2106 10003KT P6SM SKC
      TEMPO 2010/2013 5SM BR
     FM201300 05004KT P6SM SCT250
     FM201700 07008KT P6SM SCT045
     FM210000 08004KT P6SM SKC=

USA.gov is the U.S. government's official web portal to all federal, state and local government web resources and services.